createdAt,value
2022-08-26T00:00:07.758Z,17.87
2022-08-26T00:03:01.590Z,17.75
2022-08-26T00:05:31.115Z,17.69
2022-08-26T00:07:59.293Z,17.65
2022-08-26T00:10:27.572Z,17.61
2022-08-26T00:12:55.756Z,17.60
2022-08-26T00:15:25.395Z,17.57
2022-08-26T00:17:53.692Z,17.57
2022-08-26T00:20:24.069Z,17.56
2022-08-26T00:22:52.522Z,17.55
2022-08-26T00:25:21.272Z,17.55
2022-08-26T00:27:49.469Z,17.56
2022-08-26T00:30:22.823Z,17.55
2022-08-26T00:32:53.083Z,17.53
2022-08-26T00:35:21.990Z,17.49
2022-08-26T00:37:51.454Z,17.46
2022-08-26T00:40:21.840Z,17.41
2022-08-26T00:42:50.231Z,17.36
2022-08-26T00:45:18.492Z,17.32
2022-08-26T00:47:48.917Z,17.28
2022-08-26T00:50:19.413Z,17.22
2022-08-26T00:52:48.336Z,17.15
2022-08-26T00:55:24.648Z,17.09
2022-08-26T00:57:56.254Z,17.03
2022-08-26T01:00:26.760Z,16.99
2022-08-26T01:02:56.292Z,16.95
2022-08-26T01:05:25.604Z,16.92
2022-08-26T01:07:54.098Z,16.89
2022-08-26T01:10:28.366Z,16.89
2022-08-26T01:12:58.085Z,16.91
2022-08-26T01:15:32.967Z,16.95
2022-08-26T01:18:03.127Z,16.99
2022-08-26T01:20:40.331Z,17.02
2022-08-26T01:23:10.649Z,17.04
2022-08-26T01:25:43.144Z,17.07
2022-08-26T01:28:21.987Z,17.12
2022-08-26T01:30:52.830Z,17.15
2022-08-26T01:33:23.778Z,17.18
2022-08-26T01:35:52.614Z,17.19
2022-08-26T01:38:23.652Z,17.22
2022-08-26T01:40:53.637Z,17.23
2022-08-26T01:43:25.387Z,17.23
2022-08-26T01:45:57.193Z,17.20
2022-08-26T01:48:28.815Z,17.18
2022-08-26T01:50:57.676Z,17.13
2022-08-26T01:53:26.646Z,17.03
2022-08-26T01:55:59.110Z,16.98
2022-08-26T01:58:33.271Z,16.90
2022-08-26T02:01:01.727Z,16.80
2022-08-26T02:03:31.117Z,16.71
2022-08-26T02:06:04.228Z,16.62
2022-08-26T02:08:37.171Z,16.54
2022-08-26T02:11:05.707Z,16.47
2022-08-26T02:13:35.262Z,16.41
2022-08-26T02:16:04.162Z,16.36
2022-08-26T02:18:35.264Z,16.32
2022-08-26T02:21:03.935Z,16.27
2022-08-26T02:23:35.195Z,16.21
2022-08-26T02:26:17.829Z,16.15
2022-08-26T02:29:00.273Z,16.09
2022-08-26T02:31:29.124Z,16.03
2022-08-26T02:34:07.157Z,16.00
2022-08-26T02:36:39.109Z,15.96
2022-08-26T02:39:08.445Z,15.93
2022-08-26T02:41:44.080Z,15.90
2022-08-26T02:44:13.700Z,15.85
2022-08-26T02:46:41.980Z,15.82
2022-08-26T02:49:17.142Z,15.78
2022-08-26T02:51:45.993Z,15.79
2022-08-26T02:54:14.225Z,15.77
2022-08-26T02:56:43.002Z,15.76
2022-08-26T02:59:14.268Z,15.77
2022-08-26T03:01:42.855Z,15.78
2022-08-26T03:04:12.338Z,15.81
2022-08-26T03:06:41.472Z,15.82
2022-08-26T03:09:09.920Z,15.81
2022-08-26T03:11:42.794Z,15.78
2022-08-26T03:14:11.982Z,15.75
2022-08-26T03:16:41.124Z,15.73
2022-08-26T03:19:10.289Z,15.72
2022-08-26T03:21:39.177Z,15.70
2022-08-26T03:24:10.310Z,15.67
2022-08-26T03:26:38.625Z,15.65
2022-08-26T03:29:25.880Z,15.61
2022-08-26T03:31:54.436Z,15.58
2022-08-26T03:34:23.186Z,15.54
2022-08-26T03:36:51.381Z,15.50
2022-08-26T03:39:19.630Z,15.47
2022-08-26T03:41:48.148Z,15.44
2022-08-26T03:44:16.299Z,15.42
2022-08-26T03:46:45.760Z,15.41
2022-08-26T03:49:13.957Z,15.40
2022-08-26T03:51:43.508Z,15.40
2022-08-26T03:54:13.077Z,15.39
2022-08-26T03:56:41.259Z,15.39
2022-08-26T03:59:10.061Z,15.38
2022-08-26T04:01:38.282Z,15.38
2022-08-26T04:04:06.745Z,15.39
2022-08-26T04:06:37.247Z,15.39
2022-08-26T04:09:07.660Z,15.38
2022-08-26T04:11:38.683Z,15.38
2022-08-26T04:14:09.325Z,15.37
2022-08-26T04:16:39.206Z,15.37
2022-08-26T04:19:07.920Z,15.40
2022-08-26T04:21:38.490Z,15.43
2022-08-26T04:24:11.358Z,15.47
2022-08-26T04:26:42.740Z,15.52
2022-08-26T04:29:14.558Z,15.54
2022-08-26T04:31:42.788Z,15.59
2022-08-26T04:34:11.212Z,15.63
2022-08-26T04:36:43.407Z,15.69
2022-08-26T04:39:12.702Z,15.75
2022-08-26T04:41:40.898Z,15.82
2022-08-26T04:44:09.125Z,15.88
2022-08-26T04:46:39.814Z,15.95
2022-08-26T04:49:12.169Z,16.04
2022-08-26T04:51:40.443Z,16.12
2022-08-26T04:54:08.930Z,16.20
2022-08-26T04:56:38.618Z,16.30
2022-08-26T04:59:16.629Z,16.41
2022-08-26T05:01:46.655Z,16.56
2022-08-26T05:04:16.261Z,16.72
2022-08-26T05:06:47.790Z,16.88
2022-08-26T05:09:16.513Z,17.02
2022-08-26T05:11:48.529Z,17.14
2022-08-26T05:14:22.493Z,17.26
2022-08-26T05:16:50.786Z,17.42
2022-08-26T05:19:19.573Z,17.61
2022-08-26T05:21:48.898Z,17.81
2022-08-26T05:24:18.019Z,18.01
2022-08-26T05:26:48.085Z,18.18
2022-08-26T05:29:16.933Z,18.34
2022-08-26T05:31:45.241Z,18.47
2022-08-26T05:34:13.699Z,18.65
2022-08-26T05:36:42.497Z,18.86
2022-08-26T05:39:10.866Z,19.08
2022-08-26T05:41:41.334Z,19.30
2022-08-26T05:44:12.887Z,19.50
2022-08-26T05:46:44.901Z,19.69
2022-08-26T05:49:14.557Z,19.90
2022-08-26T05:51:47.746Z,20.17
2022-08-26T05:54:21.874Z,20.39
2022-08-26T05:56:51.439Z,20.59
2022-08-26T05:59:24.242Z,20.76
2022-08-26T06:01:55.255Z,20.96
2022-08-26T06:04:28.609Z,21.19
2022-08-26T06:07:00.887Z,21.43
2022-08-26T06:09:29.139Z,21.65
2022-08-26T06:11:58.994Z,21.91
2022-08-26T06:14:30.823Z,22.16
2022-08-26T06:16:59.073Z,22.44
2022-08-26T06:19:32.754Z,22.73
2022-08-26T06:22:23.291Z,23.02
2022-08-26T06:25:13.227Z,23.37
2022-08-26T06:27:41.605Z,23.70
2022-08-26T06:30:10.694Z,23.97
2022-08-26T06:32:38.919Z,24.23
2022-08-26T06:35:07.320Z,24.49
2022-08-26T06:37:41.236Z,24.77
2022-08-26T06:40:10.004Z,25.03
2022-08-26T06:42:39.943Z,25.24
2022-08-26T06:45:08.624Z,25.43
2022-08-26T06:47:37.215Z,25.70
2022-08-26T06:50:05.650Z,25.96
2022-08-26T06:52:33.832Z,26.19
2022-08-26T06:55:03.328Z,26.38
2022-08-26T06:57:33.091Z,26.59
2022-08-26T07:00:10.806Z,26.85
2022-08-26T07:02:39.525Z,27.13
2022-08-26T07:05:08.038Z,27.30
2022-08-26T07:07:37.683Z,27.54
2022-08-26T07:10:08.702Z,27.75
2022-08-26T07:12:37.182Z,27.85
2022-08-26T07:15:06.272Z,27.80
2022-08-26T07:17:36.302Z,27.73
2022-08-26T07:20:07.638Z,27.70
2022-08-26T07:22:37.342Z,27.64
2022-08-26T07:25:09.486Z,27.67
2022-08-26T07:27:38.386Z,27.77
2022-08-26T07:30:07.669Z,27.85
2022-08-26T07:32:37.736Z,28.02
2022-08-26T07:35:06.486Z,28.13
2022-08-26T07:37:35.591Z,28.18
2022-08-26T07:40:09.570Z,28.30
2022-08-26T07:42:37.891Z,28.42
2022-08-26T07:45:06.660Z,28.65
2022-08-26T07:47:35.406Z,28.87
2022-08-26T07:50:04.047Z,29.10
2022-08-26T07:52:34.459Z,29.17
2022-08-26T07:55:02.777Z,29.21
2022-08-26T07:57:31.068Z,29.28
2022-08-26T08:00:00.013Z,29.34
2022-08-26T08:02:29.350Z,29.55
2022-08-26T08:04:58.675Z,29.73
2022-08-26T08:07:44.190Z,29.88
2022-08-26T08:10:15.890Z,30.02
2022-08-26T08:12:44.711Z,30.28
2022-08-26T08:15:13.984Z,30.47
2022-08-26T08:17:43.706Z,30.70
2022-08-26T08:20:13.743Z,30.87
2022-08-26T08:22:43.360Z,30.92
2022-08-26T08:25:12.599Z,31.00
2022-08-26T08:27:42.604Z,31.17
2022-08-26T08:30:13.915Z,31.37
2022-08-26T08:32:43.834Z,31.33
2022-08-26T08:35:14.254Z,31.38
2022-08-26T08:37:44.075Z,31.38
2022-08-26T08:40:18.571Z,31.51
2022-08-26T08:42:49.974Z,31.76
2022-08-26T08:45:22.500Z,32.13
2022-08-26T08:47:54.626Z,32.39
2022-08-26T08:50:23.012Z,32.49
2022-08-26T08:53:00.236Z,32.63
2022-08-26T08:55:31.645Z,32.72
2022-08-26T08:58:06.293Z,32.54
2022-08-26T09:00:44.417Z,32.49
2022-08-26T09:03:35.758Z,32.53
2022-08-26T09:06:04.236Z,32.53
2022-08-26T09:08:35.992Z,32.52
2022-08-26T09:11:04.622Z,32.55
2022-08-26T09:13:36.113Z,32.62
2022-08-26T09:16:31.504Z,32.81
2022-08-26T09:19:19.354Z,32.73
2022-08-26T09:21:55.193Z,32.74
2022-08-26T09:24:28.621Z,32.80
2022-08-26T09:26:59.424Z,32.84
2022-08-26T09:29:27.697Z,33.13
2022-08-26T09:32:19.466Z,33.20
2022-08-26T09:34:54.656Z,32.94
2022-08-26T09:37:38.045Z,32.96
2022-08-26T09:40:27.397Z,33.02
2022-08-26T09:43:23.040Z,32.74
2022-08-26T09:45:59.429Z,32.44
2022-08-26T09:48:32.696Z,32.38
2022-08-26T09:51:06.227Z,32.50
2022-08-26T09:53:40.202Z,32.47
2022-08-26T09:56:12.342Z,32.37
2022-08-26T09:58:42.300Z,32.27
2022-08-26T10:01:23.467Z,32.07
2022-08-26T10:03:52.161Z,31.95
2022-08-26T10:06:23.113Z,32.05
2022-08-26T10:08:57.856Z,31.91
2022-08-26T10:11:42.770Z,31.98
2022-08-26T10:14:11.485Z,32.15
2022-08-26T10:16:39.678Z,32.35
2022-08-26T10:19:19.038Z,32.40
2022-08-26T10:21:54.212Z,32.38
2022-08-26T10:24:26.270Z,32.44
2022-08-26T10:27:15.055Z,32.46
2022-08-26T10:29:46.063Z,32.69
2022-08-26T10:32:28.160Z,32.81
2022-08-26T10:34:56.729Z,32.91
2022-08-26T10:37:31.416Z,33.07
2022-08-26T10:40:23.986Z,33.20
2022-08-26T10:42:55.099Z,33.28
2022-08-26T10:45:25.935Z,33.44
2022-08-26T10:48:00.172Z,33.69
2022-08-26T10:50:39.473Z,34.01
2022-08-26T10:53:07.670Z,34.09
2022-08-26T10:55:48.429Z,34.25
2022-08-26T10:58:16.571Z,34.44
2022-08-26T11:01:40.874Z,34.58
2022-08-26T11:04:35.103Z,34.43
2022-08-26T11:07:22.114Z,34.55
2022-08-26T11:09:51.473Z,34.75
2022-08-26T11:12:34.724Z,34.79
2022-08-26T11:15:11.834Z,34.83
2022-08-26T11:17:45.019Z,34.80
2022-08-26T11:20:16.286Z,34.84
2022-08-26T11:22:48.006Z,34.93
2022-08-26T11:25:18.193Z,34.70
2022-08-26T11:27:51.704Z,34.34
2022-08-26T11:30:20.422Z,33.90
2022-08-26T11:32:56.448Z,33.75
2022-08-26T11:35:24.950Z,33.58
2022-08-26T11:38:02.226Z,33.65
2022-08-26T11:40:35.521Z,33.93
2022-08-26T11:43:07.685Z,34.23
2022-08-26T11:45:44.099Z,34.59
2022-08-26T11:48:23.837Z,34.87
2022-08-26T11:50:55.392Z,35.02
2022-08-26T11:53:24.390Z,35.19
2022-08-26T11:55:56.221Z,35.32
2022-08-26T11:58:27.100Z,35.04
2022-08-26T12:00:59.980Z,34.62
2022-08-26T12:03:36.304Z,34.44
2022-08-26T12:06:12.019Z,34.31
2022-08-26T12:08:44.258Z,34.38
2022-08-26T12:11:20.169Z,34.48
2022-08-26T12:14:15.533Z,34.51
2022-08-26T12:16:44.211Z,34.52
2022-08-26T12:19:27.767Z,34.52
2022-08-26T12:22:00.630Z,34.31
2022-08-26T12:24:29.065Z,34.23
2022-08-26T12:27:17.959Z,34.16
2022-08-26T12:29:59.913Z,34.02
2022-08-26T12:32:29.021Z,33.95
2022-08-26T12:34:58.512Z,34.02
2022-08-26T12:37:27.365Z,33.98
2022-08-26T12:39:56.341Z,33.95
2022-08-26T12:42:40.516Z,33.93
2022-08-26T12:45:09.048Z,33.95
2022-08-26T12:47:42.661Z,34.14
2022-08-26T12:50:18.447Z,34.30
2022-08-26T12:53:03.184Z,34.47
2022-08-26T12:55:43.986Z,34.56
2022-08-26T12:58:23.676Z,34.55
2022-08-26T13:01:12.154Z,34.48
2022-08-26T13:03:45.758Z,34.46
2022-08-26T13:06:22.942Z,34.68
2022-08-26T13:08:53.224Z,34.82
2022-08-26T13:11:21.395Z,34.81
2022-08-26T13:13:53.596Z,34.75
2022-08-26T13:16:22.385Z,34.65
2022-08-26T13:18:52.265Z,34.56
2022-08-26T13:21:22.549Z,34.33
2022-08-26T13:23:51.145Z,34.14
2022-08-26T13:26:19.845Z,33.89
2022-08-26T13:28:48.625Z,33.69
2022-08-26T13:31:30.516Z,33.65
2022-08-26T13:33:59.126Z,33.63
2022-08-26T13:36:27.344Z,33.69
2022-08-26T13:38:55.715Z,33.84
2022-08-26T13:41:29.550Z,34.01
2022-08-26T13:43:59.459Z,34.02
2022-08-26T13:46:28.489Z,33.79
2022-08-26T13:48:57.870Z,33.47
2022-08-26T13:51:27.038Z,33.22
2022-08-26T13:53:55.554Z,33.17
2022-08-26T13:56:24.778Z,33.23
2022-08-26T13:58:53.093Z,33.33
2022-08-26T14:01:21.394Z,33.38
2022-08-26T14:03:53.725Z,33.47
2022-08-26T14:06:22.333Z,33.58
2022-08-26T14:08:50.495Z,33.57
2022-08-26T14:11:19.200Z,33.38
2022-08-26T14:13:47.944Z,33.39
2022-08-26T14:16:24.455Z,33.38
2022-08-26T14:18:53.297Z,33.14
2022-08-26T14:21:22.049Z,32.86
2022-08-26T14:23:50.330Z,32.77
2022-08-26T14:26:27.768Z,32.78
2022-08-26T14:28:59.080Z,32.58
2022-08-26T14:31:29.627Z,32.33
2022-08-26T14:33:59.873Z,32.10
2022-08-26T14:36:36.239Z,32.02
2022-08-26T14:39:09.736Z,31.86
2022-08-26T14:41:53.968Z,31.64
2022-08-26T14:44:28.041Z,31.57
2022-08-26T14:46:56.300Z,31.40
2022-08-26T14:49:25.448Z,31.25
2022-08-26T14:51:54.623Z,31.18
2022-08-26T14:54:22.795Z,31.10
2022-08-26T14:56:52.285Z,31.06
2022-08-26T14:59:28.294Z,31.07
2022-08-26T15:01:57.180Z,31.01
2022-08-26T15:04:25.469Z,30.99
2022-08-26T15:06:54.803Z,30.88
2022-08-26T15:09:23.504Z,30.70
2022-08-26T15:11:53.273Z,30.57
2022-08-26T15:14:22.139Z,30.50
2022-08-26T15:16:52.452Z,30.36
2022-08-26T15:19:21.166Z,30.21
2022-08-26T15:21:49.677Z,30.02
2022-08-26T15:24:19.634Z,29.85
2022-08-26T15:26:48.999Z,29.71
2022-08-26T15:29:17.814Z,29.60
2022-08-26T15:31:46.100Z,29.47
2022-08-26T15:34:16.794Z,29.37
2022-08-26T15:36:46.898Z,29.34
2022-08-26T15:39:16.471Z,29.28
2022-08-26T15:41:44.939Z,29.19
2022-08-26T15:44:14.471Z,29.10
2022-08-26T15:46:43.247Z,28.99
2022-08-26T15:49:17.553Z,28.91
2022-08-26T15:51:48.260Z,28.85
2022-08-26T15:54:17.427Z,28.80
2022-08-26T15:56:47.983Z,28.72
2022-08-26T15:59:16.556Z,28.66
2022-08-26T16:01:44.993Z,28.59
2022-08-26T16:04:14.246Z,28.52
2022-08-26T16:06:43.660Z,28.43
2022-08-26T16:09:11.812Z,28.34
2022-08-26T16:11:43.005Z,28.25
2022-08-26T16:14:11.442Z,28.19
2022-08-26T16:16:40.625Z,28.07
2022-08-26T16:19:08.827Z,27.95
2022-08-26T16:21:37.502Z,27.84
2022-08-26T16:24:06.006Z,27.72
2022-08-26T16:26:35.492Z,27.57
2022-08-26T16:29:05.468Z,27.45
2022-08-26T16:31:33.742Z,27.34
2022-08-26T16:34:01.940Z,27.22
2022-08-26T16:36:30.178Z,27.08
2022-08-26T16:38:58.358Z,26.94
2022-08-26T16:41:28.079Z,26.81
2022-08-26T16:43:56.546Z,26.67
2022-08-26T16:46:26.470Z,26.55
2022-08-26T16:48:56.223Z,26.46
2022-08-26T16:51:27.196Z,26.38
2022-08-26T16:53:56.581Z,26.30
2022-08-26T16:56:33.416Z,26.22
2022-08-26T16:59:04.401Z,26.14
2022-08-26T17:01:32.582Z,26.05
2022-08-26T17:04:00.754Z,25.97
2022-08-26T17:06:28.935Z,25.88
2022-08-26T17:08:57.135Z,25.77
2022-08-26T17:11:25.320Z,25.66
2022-08-26T17:13:53.511Z,25.57
2022-08-26T17:16:26.484Z,25.46
2022-08-26T17:18:58.668Z,25.33
2022-08-26T17:21:28.090Z,25.20
2022-08-26T17:23:56.703Z,25.06
2022-08-26T17:26:25.557Z,24.95
2022-08-26T17:28:54.104Z,24.84
2022-08-26T17:31:23.630Z,24.73
2022-08-26T17:33:53.744Z,24.64
2022-08-26T17:36:28.098Z,24.54
2022-08-26T17:38:57.601Z,24.45
2022-08-26T17:41:26.488Z,24.34
2022-08-26T17:43:54.768Z,24.24
2022-08-26T17:46:23.165Z,24.14
2022-08-26T17:48:51.531Z,24.05
2022-08-26T17:51:19.823Z,23.97
2022-08-26T17:53:48.690Z,23.90
2022-08-26T17:56:18.764Z,23.81
2022-08-26T17:58:48.224Z,23.74
2022-08-26T18:01:21.103Z,23.66
2022-08-26T18:03:50.074Z,23.59
2022-08-26T18:06:19.570Z,23.53
2022-08-26T18:08:48.508Z,23.47
2022-08-26T18:11:18.430Z,23.43
2022-08-26T18:13:47.765Z,23.37
2022-08-26T18:16:17.831Z,23.33
2022-08-26T18:18:47.014Z,23.30
2022-08-26T18:21:17.072Z,23.24
2022-08-26T18:23:46.222Z,23.17
2022-08-26T18:26:19.146Z,23.13
2022-08-26T18:28:47.327Z,23.08
2022-08-26T18:31:15.797Z,23.03
2022-08-26T18:33:44.558Z,22.97
2022-08-26T18:36:20.482Z,22.90
2022-08-26T18:38:50.315Z,22.84
2022-08-26T18:41:21.092Z,22.82
2022-08-26T18:43:50.652Z,22.78
2022-08-26T18:46:20.309Z,22.74
2022-08-26T18:48:50.995Z,22.70
2022-08-26T18:51:21.773Z,22.66
2022-08-26T18:53:50.073Z,22.62
2022-08-26T18:56:18.879Z,22.59
2022-08-26T18:58:47.516Z,22.51
2022-08-26T19:01:16.469Z,22.42
2022-08-26T19:03:45.587Z,22.32
2022-08-26T19:06:14.883Z,22.22
2022-08-26T19:08:44.731Z,22.18
2022-08-26T19:11:14.030Z,22.13
2022-08-26T19:13:43.248Z,22.06
2022-08-26T19:16:23.230Z,21.92
2022-08-26T19:18:53.007Z,21.78
2022-08-26T19:21:22.586Z,21.73
2022-08-26T19:23:51.580Z,21.71
2022-08-26T19:26:19.683Z,21.70
2022-08-26T19:28:49.643Z,21.68
2022-08-26T19:31:17.911Z,21.66
2022-08-26T19:33:46.116Z,21.64
2022-08-26T19:36:17.828Z,21.62
2022-08-26T19:38:46.403Z,21.56
2022-08-26T19:41:15.875Z,21.48
2022-08-26T19:43:44.031Z,21.41
2022-08-26T19:46:23.796Z,21.35
2022-08-26T19:48:55.272Z,21.26
2022-08-26T19:51:25.898Z,21.16
2022-08-26T19:53:55.546Z,21.07
2022-08-26T19:56:24.005Z,21.01
2022-08-26T19:58:52.151Z,20.93
2022-08-26T20:01:20.376Z,20.85
2022-08-26T20:03:49.348Z,20.79
2022-08-26T20:06:18.027Z,20.70
2022-08-26T20:08:46.337Z,20.62
2022-08-26T20:11:16.410Z,20.56
2022-08-26T20:13:45.636Z,20.48
2022-08-26T20:16:14.298Z,20.38
2022-08-26T20:19:02.010Z,20.30
2022-08-26T20:21:33.295Z,20.18
2022-08-26T20:24:06.099Z,20.11
2022-08-26T20:26:36.120Z,20.05
2022-08-26T20:29:04.897Z,19.94
2022-08-26T20:31:33.067Z,19.83
2022-08-26T20:34:01.601Z,19.74
2022-08-26T20:36:30.023Z,19.66
2022-08-26T20:38:58.533Z,19.61
2022-08-26T20:41:26.679Z,19.55
2022-08-26T20:43:55.741Z,19.47
2022-08-26T20:46:25.037Z,19.41
2022-08-26T20:48:54.044Z,19.36
2022-08-26T20:51:23.797Z,19.31
2022-08-26T20:53:51.976Z,19.27
2022-08-26T20:56:23.929Z,19.22
2022-08-26T20:58:54.297Z,19.17
2022-08-26T21:01:23.955Z,19.13
2022-08-26T21:03:53.121Z,19.11
2022-08-26T21:06:21.372Z,19.08
2022-08-26T21:08:51.136Z,19.04
2022-08-26T21:11:19.848Z,19.00
2022-08-26T21:14:04.363Z,18.97
2022-08-26T21:16:39.521Z,18.94
2022-08-26T21:19:10.777Z,18.91
2022-08-26T21:21:39.230Z,18.88
2022-08-26T21:24:07.913Z,18.81
2022-08-26T21:26:36.453Z,18.76
2022-08-26T21:29:05.439Z,18.70
2022-08-26T21:31:33.655Z,18.65
2022-08-26T21:34:01.853Z,18.59
2022-08-26T21:36:30.122Z,18.54
2022-08-26T21:38:58.461Z,18.50
2022-08-26T21:41:27.298Z,18.48
2022-08-26T21:43:59.308Z,18.49
2022-08-26T21:46:29.302Z,18.49
2022-08-26T21:48:59.045Z,18.49
2022-08-26T21:51:28.674Z,18.49
2022-08-26T21:53:57.744Z,18.46
2022-08-26T21:56:27.619Z,18.43
2022-08-26T21:58:56.552Z,18.43
2022-08-26T22:01:26.496Z,18.43
2022-08-26T22:03:54.899Z,18.45
2022-08-26T22:06:24.653Z,18.49
2022-08-26T22:08:53.298Z,18.52
2022-08-26T22:11:21.566Z,18.56
2022-08-26T22:13:49.947Z,18.57
2022-08-26T22:16:18.300Z,18.55
2022-08-26T22:18:46.452Z,18.54
2022-08-26T22:21:16.965Z,18.49
2022-08-26T22:23:45.512Z,18.43
2022-08-26T22:26:15.216Z,18.36
2022-08-26T22:28:58.539Z,18.29
2022-08-26T22:31:33.674Z,18.23
2022-08-26T22:34:11.190Z,18.16
2022-08-26T22:36:44.027Z,18.11
2022-08-26T22:39:16.567Z,18.03
2022-08-26T22:41:45.473Z,17.97
2022-08-26T22:44:13.591Z,17.92
2022-08-26T22:46:42.202Z,17.88
2022-08-26T22:49:11.536Z,17.84
2022-08-26T22:51:39.788Z,17.80
2022-08-26T22:54:08.106Z,17.75
2022-08-26T22:56:36.690Z,17.72
2022-08-26T22:59:06.919Z,17.72
2022-08-26T23:01:36.894Z,17.71
2022-08-26T23:04:06.443Z,17.71
2022-08-26T23:06:36.025Z,17.69
2022-08-26T23:09:04.888Z,17.66
2022-08-26T23:11:33.218Z,17.63
2022-08-26T23:14:06.188Z,17.60
2022-08-26T23:16:39.104Z,17.55
2022-08-26T23:19:08.440Z,17.48
2022-08-26T23:21:36.667Z,17.44
2022-08-26T23:24:05.473Z,17.37
2022-08-26T23:26:34.441Z,17.32
2022-08-26T23:29:02.925Z,17.28
2022-08-26T23:31:31.651Z,17.23
2022-08-26T23:34:18.623Z,17.16
2022-08-26T23:36:48.055Z,17.11
2022-08-26T23:39:16.280Z,17.07
2022-08-26T23:41:44.646Z,17.05
2022-08-26T23:44:13.162Z,17.00
2022-08-26T23:46:41.338Z,16.99
2022-08-26T23:49:09.473Z,16.98
2022-08-26T23:51:57.365Z,16.94
2022-08-26T23:54:25.760Z,16.89
2022-08-26T23:56:53.881Z,16.85
2022-08-26T23:59:22.083Z,16.81
